Time;durP1;ratioP1;P1;durP2;ratioP2;P2;SDS_P1;SDS_P2;PMS_P1;PMS_P2;Temp;Humidity;BMP_temperature;BMP_pressure;BME280_temperature;BME280_humidity;BME280_pressure;Samples;Min_cycle;Max_cycle;Signal;HPM_P1;HPM_P2
2021/03/27 00:01:07;;;;;;;;;;;;;;;3.23;72.18;102120.02;1939023;74;20551;-79
2021/03/27 00:03:41;;;;;;;;;;;;;;;3.19;72.35;102125.19;1939431;74;20545;-79
2021/03/27 00:09:46;;;;;;;;;;;;;;;3.09;72.53;102120.20;1938179;74;20704;-78
2021/03/27 00:12:32;;;;;;;;;;;;;;;2.99;72.86;102123.31;1937990;74;20177;-78
2021/03/27 00:15:24;;;;;;;;;;;;;;;2.94;73.11;102121.64;1937615;74;20502;-78
2021/03/27 00:17:56;;;;;;;;;;;;;;;2.87;73.32;102120.86;1938093;73;20227;-79
2021/03/27 00:20:48;;;;;;;;;;;;;;;2.81;73.54;102118.37;1937356;74;20133;-79
2021/03/27 00:23:19;;;;;;;;;;;;;;;2.80;73.81;102124.38;1936754;74;20141;-78
2021/03/27 00:26:06;;;;;;;;;;;;;;;2.76;73.89;102120.15;1937766;74;20562;-77
2021/03/27 00:28:44;;;;;;;;;;;;;;;2.75;74.06;102124.84;1936836;74;20173;-77
2021/03/27 00:31:22;;;;;;;;;;;;;;;2.78;74.17;102118.83;1924519;73;20241;-80
2021/03/27 00:33:58;;;;;;;;;;;;;;;2.73;74.17;102116.34;1891998;76;20481;-78
2021/03/27 00:36:36;;;;;;;;;;;;;;;2.74;74.28;102118.05;1891985;76;20151;-79
2021/03/27 00:39:07;;;;;;;;;;;;;;;2.76;74.29;102117.58;1891234;76;20223;-77
2021/03/27 00:41:38;;;;;;;;;;;;;;;2.77;74.28;102112.03;1891913;76;20478;-78
2021/03/27 00:44:09;;;;;;;;;;;;;;;2.78;74.41;102111.14;1892286;75;20147;-78
2021/03/27 00:46:37;;;;;;;;;;;;;;;2.75;74.48;102109.89;1858052;76;20144;-78
2021/03/27 00:49:24;;;;;;;;;;;;;;;2.76;74.50;102112.89;1892512;75;22196;-78
2021/03/27 00:51:56;;;;;;;;;;;;;;;2.80;74.47;102110.28;1891991;75;20132;-78
2021/03/27 00:54:30;;;;;;;;;;;;;;;2.82;74.40;102112.39;1892063;76;20218;-77
2021/03/27 00:57:08;;;;;;;;;;;;;;;2.84;74.34;102113.67;1891675;75;20517;-79
2021/03/27 00:59:44;;;;;;;;;;;;;;;2.86;74.30;102114.48;1893230;76;20124;-78
2021/03/27 01:02:14;;;;;;;;;;;;;;;2.88;74.25;102118.72;1892720;76;21141;-78
2021/03/27 01:05:04;;;;;;;;;;;;;;;2.88;74.16;102121.72;1893683;76;20128;-78
2021/03/27 01:07:56;;;;;;;;;;;;;;;2.85;74.15;102126.45;1892679;76;20474;-79
2021/03/27 01:10:37;;;;;;;;;;;;;;;2.81;74.14;102132.47;1859442;76;20238;-77
2021/03/27 01:13:13;;;;;;;;;;;;;;;2.78;74.21;102132.93;1856964;76;20230;-78
2021/03/27 01:15:45;;;;;;;;;;;;;;;2.73;74.42;102136.84;1892762;76;21177;-79
2021/03/27 01:18:21;;;;;;;;;;;;;;;2.71;74.55;102139.86;1892807;76;20140;-79
2021/03/27 01:20:58;;;;;;;;;;;;;;;2.68;74.71;102140.33;1892909;76;20250;-79
2021/03/27 01:23:26;;;;;;;;;;;;;;;2.68;74.84;102139.05;1892241;76;20104;-80
2021/03/27 01:25:59;;;;;;;;;;;;;;;2.68;74.95;102140.33;1892270;76;20125;-80
2021/03/27 01:28:34;;;;;;;;;;;;;;;2.68;75.19;102139.86;1892143;76;20533;-78
2021/03/27 01:31:24;;;;;;;;;;;;;;;2.70;75.24;102142.00;1891885;75;20529;-79
2021/03/27 01:33:58;;;;;;;;;;;;;;;2.69;75.25;102139.02;1840686;76;20251;-78
2021/03/27 01:36:33;;;;;;;;;;;;;;;2.68;75.41;102140.72;1891987;75;20120;-79
2021/03/27 01:39:06;;;;;;;;;;;;;;;2.68;75.51;102148.84;1892854;76;20394;-80
2021/03/27 01:41:37;;;;;;;;;;;;;;;2.64;75.55;102150.61;1893672;76;21192;-78
2021/03/27 01:44:26;;;;;;;;;;;;;;;2.61;75.75;102150.64;1859021;76;20120;-78
2021/03/27 01:47:06;;;;;;;;;;;;;;;2.58;76.07;102143.41;1890888;76;20124;-78
2021/03/27 01:49:45;;;;;;;;;;;;;;;2.56;76.36;102143.84;1891500;76;20151;-79
2021/03/27 01:52:45;;;;;;;;;;;;;;;2.57;76.50;102146.83;1891972;76;20187;-78
2021/03/27 01:55:35;;;;;;;;;;;;;;;2.58;76.78;102153.23;1892293;76;21183;-78
2021/03/27 01:58:09;;;;;;;;;;;;;;;2.60;76.89;102150.64;1891937;76;20191;-78
2021/03/27 02:00:39;;;;;;;;;;;;;;;2.64;77.00;102156.16;1891796;76;20156;-79
2021/03/27 02:03:41;;;;;;;;;;;;;;;2.68;77.14;102157.80;1891693;75;20191;-78
2021/03/27 02:06:28;;;;;;;;;;;;;;;2.67;77.13;102154.84;1892184;76;20132;-77
2021/03/27 02:09:01;;;;;;;;;;;;;;;2.71;77.50;102155.25;1891557;76;21948;-79
2021/03/27 02:11:50;;;;;;;;;;;;;;;2.68;77.54;102154.81;1891838;76;20218;-81
2021/03/27 02:14:39;;;;;;;;;;;;;;;2.72;77.69;102163.33;1891917;76;20226;-78
2021/03/27 02:17:29;;;;;;;;;;;;;;;2.74;77.82;102158.20;1892941;76;20167;-78
2021/03/27 02:20:25;;;;;;;;;;;;;;;2.76;78.68;102160.30;1892859;76;20116;-77
2021/03/27 02:23:11;;;;;;;;;;;;;;;2.81;79.32;102165.80;1891402;76;21345;-78
2021/03/27 02:26:00;;;;;;;;;;;;;;;2.85;79.48;102164.91;1891710;76;20579;-77
2021/03/27 02:28:40;;;;;;;;;;;;;;;2.91;80.06;102169.11;1892197;76;20200;-78
2021/03/27 02:31:29;;;;;;;;;;;;;;;2.89;80.16;102171.71;1903923;75;20127;-78
2021/03/27 02:34:20;;;;;;;;;;;;;;;2.91;80.71;102173.81;1828184;78;20547;-77
2021/03/27 02:37:06;;;;;;;;;;;;;;;2.92;80.92;102174.24;1785771;79;21030;-76
2021/03/27 02:39:40;;;;;;;;;;;;;;;2.91;81.20;102176.80;1784994;79;20521;-77
2021/03/27 02:42:40;;;;;;;;;;;;;;;2.93;82.05;102181.51;1820865;79;20263;-81
2021/03/27 02:45:22;;;;;;;;;;;;;;;2.96;82.46;102186.17;1775433;80;20341;-78
2021/03/27 02:48:22;;;;;;;;;;;;;;;3.00;82.58;102194.69;1794278;80;21196;-77
2021/03/27 02:51:15;;;;;;;;;;;;;;;2.96;82.69;102193.02;1777669;80;20159;-76
2021/03/27 02:53:49;;;;;;;;;;;;;;;2.92;83.08;102193.90;1793791;80;20229;-77
2021/03/27 02:56:34;;;;;;;;;;;;;;;2.92;83.22;102196.46;1793391;80;20167;-79
2021/03/27 02:59:09;;;;;;;;;;;;;;;2.94;83.71;102201.13;1793636;80;20603;-78
2021/03/27 03:02:03;;;;;;;;;;;;;;;2.93;83.59;102204.58;1793484;80;21207;-79
2021/03/27 03:05:12;;;;;;;;;;;;;;;2.91;84.01;102206.30;1794406;80;20163;-78
2021/03/27 03:07:53;;;;;;;;;;;;;;;2.89;84.39;102216.58;1793673;80;20162;-76
2021/03/27 03:10:41;;;;;;;;;;;;;;;2.83;84.60;102210.66;1793469;80;20294;-77
2021/03/27 03:13:25;;;;;;;;;;;;;;;2.79;84.95;102211.11;1793705;80;20528;-77
2021/03/27 03:16:13;;;;;;;;;;;;;;;2.78;85.98;102213.67;1793799;80;20206;-78
2021/03/27 03:19:11;;;;;;;;;;;;;;;2.78;86.16;102208.55;1793612;80;20277;-77
2021/03/27 03:21:45;;;;;;;;;;;;;;;2.75;86.09;102215.84;1765163;80;20157;-78
2021/03/27 03:24:19;;;;;;;;;;;;;;;2.69;86.07;102214.62;1795937;80;20147;-78
2021/03/27 03:26:53;;;;;;;;;;;;;;;2.66;86.20;102215.93;1793553;80;20210;-79
2021/03/27 03:29:53;;;;;;;;;;;;;;;2.64;86.97;102215.96;1793323;80;22417;-80
2021/03/27 03:32:28;;;;;;;;;;;;;;;2.64;87.13;102219.80;1793794;80;20301;-79
2021/03/27 03:35:31;;;;;;;;;;;;;;;2.64;87.68;102221.09;1793708;80;20520;-78
2021/03/27 03:38:25;;;;;;;;;;;;;;;2.63;87.79;102225.78;1793789;80;20123;-78
2021/03/27 03:41:19;;;;;;;;;;;;;;;2.60;88.15;102215.98;1793103;80;20159;-79
2021/03/27 03:44:09;;;;;;;;;;;;;;;2.60;88.33;102219.83;1789463;80;21215;-77
2021/03/27 03:46:50;;;;;;;;;;;;;;;2.59;88.54;102225.38;1793505;80;20258;-80
2021/03/27 03:50:00;;;;;;;;;;;;;;;2.60;88.59;102227.52;1793207;80;20265;-78
2021/03/27 03:53:06;;;;;;;;;;;;;;;2.56;89.06;102221.56;1793047;80;20497;-79
2021/03/27 03:55:59;;;;;;;;;;;;;;;2.56;89.19;102229.25;1793227;80;20261;-78
2021/03/27 03:58:37;;;;;;;;;;;;;;;2.52;89.80;102239.10;1720510;83;20696;-77
2021/03/27 04:01:14;;;;;;;;;;;;;;;2.47;90.09;102234.45;1778856;80;20151;-79
2021/03/27 04:03:46;;;;;;;;;;;;;;;2.45;90.28;102245.16;1792913;80;20182;-78
2021/03/27 04:06:17;;;;;;;;;;;;;;;2.42;90.45;102242.63;1795420;80;20206;-78
2021/03/27 04:09:06;;;;;;;;;;;;;;;2.42;91.12;102249.02;1795324;80;20690;-78
2021/03/27 04:11:44;;;;;;;;;;;;;;;2.42;91.54;102254.15;1793232;80;22270;-76
2021/03/27 04:14:42;;;;;;;;;;;;;;;2.42;92.22;102258.41;1793579;80;20218;-74
2021/03/27 04:17:13;;;;;;;;;;;;;;;2.42;92.29;102255.86;1766393;80;20667;-77
2021/03/27 04:19:44;;;;;;;;;;;;;;;2.42;92.27;102261.83;1793080;80;20277;-78
2021/03/27 04:22:27;;;;;;;;;;;;;;;2.42;92.36;102259.70;1794574;80;20163;-78
2021/03/27 04:25:20;;;;;;;;;;;;;;;2.40;92.43;102260.97;1793624;80;22119;-77
2021/03/27 04:28:04;;;;;;;;;;;;;;;2.39;92.37;102266.12;1762903;80;20250;-78
2021/03/27 04:30:52;;;;;;;;;;;;;;;2.38;92.24;102266.55;1793519;80;20147;-79
2021/03/27 04:33:24;;;;;;;;;;;;;;;2.38;92.20;102271.67;1793101;80;20183;-78
2021/03/27 04:36:04;;;;;;;;;;;;;;;2.40;91.98;102269.09;1792256;80;20174;-78
2021/03/27 04:38:47;;;;;;;;;;;;;;;2.40;91.93;102281.47;1787564;80;21204;-77
2021/03/27 04:41:51;;;;;;;;;;;;;;;2.44;92.00;102278.46;1792885;79;20512;-78
2021/03/27 04:44:52;;;;;;;;;;;;;;;2.47;91.77;102274.17;1792838;80;20131;-78
2021/03/27 04:47:24;;;;;;;;;;;;;;;2.51;91.64;102271.16;1793002;80;20147;-78
2021/03/27 04:50:16;;;;;;;;;;;;;;;2.55;91.29;102272.84;1794792;80;20251;-79
2021/03/27 04:52:49;;;;;;;;;;;;;;;2.58;90.95;102272.39;1794808;80;21213;-78
2021/03/27 04:55:35;;;;;;;;;;;;;;;2.63;90.46;102272.34;1793347;80;20163;-79
2021/03/27 04:58:10;;;;;;;;;;;;;;;2.68;89.97;102273.60;1793546;80;20191;-78
2021/03/27 05:00:50;;;;;;;;;;;;;;;2.73;89.52;102285.51;1792982;80;20139;-80
2021/03/27 05:03:25;;;;;;;;;;;;;;;2.79;89.11;102294.86;1792473;80;20162;-79
2021/03/27 05:06:02;;;;;;;;;;;;;;;2.91;88.39;102294.75;1793340;80;21161;-79
2021/03/27 05:08:37;;;;;;;;;;;;;;;2.98;87.82;102295.98;1793344;80;20234;-80
2021/03/27 05:11:31;;;;;;;;;;;;;;;3.03;87.45;102296.77;1793833;80;20497;-80
2021/03/27 05:14:24;;;;;;;;;;;;;;;3.06;87.22;102294.18;1792776;80;20593;-79
2021/03/27 05:16:58;;;;;;;;;;;;;;;3.12;87.03;102303.12;1792959;80;20277;-78
2021/03/27 05:19:46;;;;;;;;;;;;;;;3.14;86.92;102297.97;1774485;79;21211;-78
2021/03/27 05:22:30;;;;;;;;;;;;;;;3.16;86.90;102306.06;1793205;80;20250;-79
2021/03/27 05:25:01;;;;;;;;;;;;;;;3.23;86.87;102302.15;1791985;80;20596;-78
2021/03/27 05:27:33;;;;;;;;;;;;;;;3.29;86.56;102299.09;1793054;80;20344;-77
2021/03/27 05:30:26;;;;;;;;;;;;;;;3.36;86.14;102305.02;1793197;80;20171;-78
2021/03/27 05:33:24;;;;;;;;;;;;;;;3.40;86.02;102307.55;1795199;80;21204;-78
2021/03/27 05:36:16;;;;;;;;;;;;;;;3.45;85.99;102304.91;1794905;80;20186;-78
2021/03/27 05:38:54;;;;;;;;;;;;;;;3.57;85.77;102313.80;1792793;80;20218;-77
2021/03/27 05:41:45;;;;;;;;;;;;;;;3.67;85.49;102315.36;1758796;79;20251;-78
2021/03/27 05:44:39;;;;;;;;;;;;;;;3.77;85.19;102317.39;1769670;81;20132;-76
2021/03/27 05:47:42;;;;;;;;;;;;;;;3.87;84.74;102315.99;1770024;81;21209;-78
2021/03/27 05:50:22;;;;;;;;;;;;;;;3.96;84.53;102313.31;1770062;78;20475;-78
2021/03/27 05:53:25;;;;;;;;;;;;;;;4.03;84.42;102320.08;1769598;81;20242;-79
2021/03/27 05:56:17;;;;;;;;;;;;;;;4.09;84.44;102322.56;1769376;81;20168;-80
2021/03/27 05:59:08;;;;;;;;;;;;;;;4.20;84.37;102325.00;1769477;81;20243;-77
2021/03/27 06:01:59;;;;;;;;;;;;;;;4.36;84.00;102321.36;1769356;81;21268;-80
2021/03/27 06:04:34;;;;;;;;;;;;;;;4.48;83.73;102322.45;1769379;81;20155;-79
2021/03/27 06:07:28;;;;;;;;;;;;;;;4.61;83.44;102331.70;1767984;81;20243;-79
2021/03/27 06:10:23;;;;;;;;;;;;;;;4.68;82.99;102330.73;1769478;81;20144;-80
2021/03/27 06:13:14;;;;;;;;;;;;;;;4.82;82.29;102328.40;1769501;80;20235;-81
2021/03/27 06:15:56;;;;;;;;;;;;;;;4.96;81.54;102338.01;1770099;80;20151;-77
2021/03/27 06:18:30;;;;;;;;;;;;;;;5.06;81.07;102342.14;1770882;81;20150;-79
2021/03/27 06:21:18;;;;;;;;;;;;;;;5.19;80.57;102341.06;1769595;81;20199;-77
2021/03/27 06:23:57;;;;;;;;;;;;;;;5.27;80.44;102341.33;1769266;81;20136;-79
2021/03/27 06:26:38;;;;;;;;;;;;;;;5.37;79.75;102339.88;1742202;81;20224;-77
2021/03/27 06:29:30;;;;;;;;;;;;;;;5.44;79.02;102332.03;1769842;80;21191;-78
2021/03/27 06:32:34;;;;;;;;;;;;;;;5.54;78.73;102331.42;1770168;81;20197;-76
2021/03/27 06:35:21;;;;;;;;;;;;;;;5.64;78.69;102333.80;1769617;80;20188;-79
2021/03/27 06:38:19;;;;;;;;;;;;;;;5.75;78.24;102339.58;1755128;81;20128;-77
2021/03/27 06:40:52;;;;;;;;;;;;;;;5.88;77.41;102345.81;1769384;81;20601;-78
2021/03/27 06:43:29;;;;;;;;;;;;;;;5.96;76.94;102342.66;1769528;79;21198;-78
2021/03/27 06:46:06;;;;;;;;;;;;;;;6.09;76.39;102341.09;1769611;81;20195;-78
2021/03/27 06:49:00;;;;;;;;;;;;;;;6.20;75.73;102341.70;1749435;81;20251;-78
2021/03/27 06:51:43;;;;;;;;;;;;;;;6.32;74.38;102344.02;1769413;81;20169;-78
2021/03/27 06:54:54;;;;;;;;;;;;;;;6.53;73.86;102342.70;1922266;73;20210;-79
2021/03/27 06:57:56;;;;;;;;;;;;;;;6.59;73.51;102345.58;1892041;75;20481;-78
2021/03/27 07:00:51;;;;;;;;;;;;;;;6.67;72.59;102348.37;1896090;76;21197;-79
2021/03/27 07:03:40;;;;;;;;;;;;;;;6.77;70.92;102351.16;1891937;76;20143;-79
2021/03/27 07:06:42;;;;;;;;;;;;;;;6.90;71.09;102350.42;1891902;76;20156;-78
2021/03/27 07:09:48;;;;;;;;;;;;;;;6.98;70.59;102349.81;1891600;76;20124;-78
2021/03/27 07:12:36;;;;;;;;;;;;;;;7.09;69.82;102350.38;1891709;76;20176;-78
2021/03/27 07:15:41;;;;;;;;;;;;;;;7.21;69.58;102350.55;1891948;75;21352;-78
2021/03/27 07:18:48;;;;;;;;;;;;;;;7.29;69.08;102358.48;1891857;76;20128;-78
2021/03/27 07:22:03;;;;;;;;;;;;;;;7.43;67.93;102351.69;1892080;76;20540;-77
2021/03/27 07:24:54;;;;;;;;;;;;;;;7.59;67.57;102358.59;1891081;76;20184;-79
2021/03/27 07:27:59;;;;;;;;;;;;;;;7.71;66.83;102355.23;1892116;76;20247;-77
2021/03/27 07:30:48;;;;;;;;;;;;;;;7.86;66.73;102360.41;1892055;76;21175;-77
2021/03/27 07:33:53;;;;;;;;;;;;;;;7.96;66.13;102356.23;1853454;76;20211;-77
2021/03/27 07:36:47;;;;;;;;;;;;;;;8.06;65.50;102363.29;1891980;75;20266;-78
2021/03/27 07:39:55;;;;;;;;;;;;;;;8.14;64.99;102362.61;1891923;76;20203;-78
2021/03/27 07:42:51;;;;;;;;;;;;;;;8.23;63.99;102360.22;1773541;81;20204;-79
2021/03/27 07:45:41;;;;;;;;;;;;;;;8.34;63.64;102364.20;1773490;79;21214;-79
2021/03/27 07:48:46;;;;;;;;;;;;;;;8.48;63.08;102356.05;1771759;81;20496;-78
2021/03/27 07:51:36;;;;;;;;;;;;;;;8.62;62.55;102352.57;1772093;81;20151;-79
2021/03/27 07:54:27;;;;;;;;;;;;;;;8.73;61.79;102353.09;1771585;81;20198;-78
2021/03/27 07:57:16;;;;;;;;;;;;;;;8.83;61.44;102354.50;1771797;81;20248;-80
2021/03/27 08:00:22;;;;;;;;;;;;;;;8.93;61.18;102349.41;1771899;81;22119;-78
2021/03/27 08:03:16;;;;;;;;;;;;;;;9.10;60.53;102351.89;1771753;81;20492;-77
2021/03/27 08:06:03;;;;;;;;;;;;;;;9.22;59.96;102354.92;1734826;81;20250;-77
2021/03/27 08:08:56;;;;;;;;;;;;;;;9.30;59.74;102350.79;1772795;81;20187;-79
2021/03/27 08:11:54;;;;;;;;;;;;;;;9.39;60.13;102348.73;1774600;81;20213;-76
2021/03/27 08:14:30;;;;;;;;;;;;;;;9.53;59.54;102354.74;1775365;81;21953;-78
2021/03/27 08:17:36;;;;;;;;;;;;;;;9.65;59.46;102352.16;1775550;77;20126;-77
2021/03/27 08:20:14;;;;;;;;;;;;;;;9.75;58.89;102352.23;1775700;77;20119;-78
2021/03/27 08:23:08;;;;;;;;;;;;;;;9.88;58.94;102356.09;1775516;77;20230;-80
2021/03/27 08:25:54;;;;;;;;;;;;;;;9.97;58.25;102353.16;1772542;81;20201;-79
2021/03/27 08:28:47;;;;;;;;;;;;;;;10.05;57.61;102346.77;1772395;81;21184;-81
2021/03/27 08:31:21;;;;;;;;;;;;;;;10.17;57.38;102352.01;1772007;80;20277;-78
2021/03/27 08:34:13;;;;;;;;;;;;;;;10.26;56.77;102350.81;1748271;81;20234;-80
2021/03/27 08:37:03;;;;;;;;;;;;;;;10.36;56.63;102343.07;1771381;79;20309;-78
2021/03/27 08:40:03;;;;;;;;;;;;;;;10.49;55.65;102345.59;1771833;81;20488;-79
2021/03/27 08:42:52;;;;;;;;;;;;;;;10.60;55.21;102342.95;1771626;80;21200;-84
2021/03/27 08:45:41;;;;;;;;;;;;;;;10.72;54.26;102336.90;1771136;81;20214;-78
2021/03/27 08:48:25;;;;;;;;;;;;;;;10.80;53.94;102338.72;1771459;79;20227;-79
2021/03/27 08:51:24;;;;;;;;;;;;;;;10.93;52.64;102341.22;1771011;80;20150;-79
2021/03/27 08:54:05;;;;;;;;;;;;;;;11.04;52.45;102351.55;1771540;80;20154;-80
2021/03/27 08:56:36;;;;;;;;;;;;;;;11.11;51.94;102340.00;1771322;81;21257;-79
2021/03/27 08:59:08;;;;;;;;;;;;;;;11.20;51.25;102341.36;1772130;78;20604;-77
2021/03/27 09:01:46;;;;;;;;;;;;;;;11.24;50.80;102341.63;1771318;81;20146;-79
2021/03/27 09:04:52;;;;;;;;;;;;;;;11.30;49.06;102341.82;1771152;81;20222;-77
2021/03/27 09:07:45;;;;;;;;;;;;;;;11.35;47.49;102332.94;1772070;81;20134;-78
2021/03/27 09:10:17;;;;;;;;;;;;;;;11.43;48.30;102336.05;1771257;81;21191;-79
2021/03/27 09:13:23;;;;;;;;;;;;;;;11.52;48.65;102329.59;1771366;81;20630;-78
2021/03/27 09:16:23;;;;;;;;;;;;;;;11.63;48.69;102335.19;1773276;80;20135;-79
2021/03/27 09:19:25;;;;;;;;;;;;;;;11.74;48.03;102337.36;1771520;81;20459;-82
2021/03/27 09:22:21;;;;;;;;;;;;;;;11.80;48.04;102331.43;1771551;81;20234;-80
2021/03/27 09:25:02;;;;;;;;;;;;;;;11.89;47.75;102326.27;1771729;81;21195;-81
2021/03/27 09:28:05;;;;;;;;;;;;;;;12.03;46.82;102334.30;1772661;80;20221;-86
2021/03/27 09:30:50;;;;;;;;;;;;;;;12.11;46.40;102326.97;1771315;80;20246;-77
2021/03/27 09:33:21;;;;;;;;;;;;;;;12.23;46.40;102324.25;1771784;81;20516;-78
2021/03/27 09:36:05;;;;;;;;;;;;;;;12.38;46.50;102315.75;1771352;81;20158;-78
2021/03/27 09:38:42;;;;;;;;;;;;;;;12.50;45.36;102316.46;1771851;81;21197;-80
2021/03/27 09:41:25;;;;;;;;;;;;;;;12.60;45.00;102316.41;1769507;80;20166;-76
2021/03/27 09:44:08;;;;;;;;;;;;;;;12.72;43.78;102308.00;1765589;80;20492;-79
2021/03/27 09:46:57;;;;;;;;;;;;;;;12.74;43.28;102314.81;1765758;81;20258;-80
2021/03/27 09:49:49;;;;;;;;;;;;;;;12.79;43.44;102312.00;1766425;80;20258;-81
2021/03/27 09:52:24;;;;;;;;;;;;;;;13.34;42.54;102312.69;1765472;80;21431;-78
2021/03/27 09:55:00;;;;;;;;;;;;;;;14.51;40.59;102311.16;1763046;81;20163;-77
2021/03/27 09:57:41;;;;;;;;;;;;;;;15.64;38.38;102305.35;1765367;80;20241;-81
2021/03/27 10:00:18;;;;;;;;;;;;;;;16.32;36.37;102294.03;1765318;81;20501;-79
2021/03/27 10:02:50;;;;;;;;;;;;;;;17.25;35.70;102287.41;1766660;80;20294;-79
2021/03/27 10:05:43;;;;;;;;;;;;;;;18.26;32.87;102291.19;1767343;80;21195;-79
2021/03/27 10:08:24;;;;;;;;;;;;;;;18.83;31.89;102294.44;1765315;80;20234;-77
2021/03/27 10:10:59;;;;;;;;;;;;;;;19.69;30.90;102298.30;1766044;80;20226;-78
2021/03/27 10:13:40;;;;;;;;;;;;;;;20.38;29.05;102289.25;1765326;81;20214;-79
2021/03/27 10:16:27;;;;;;;;;;;;;;;21.03;28.07;102282.44;1765941;80;20167;-79
2021/03/27 10:19:02;;;;;;;;;;;;;;;22.11;25.70;102277.84;1765899;81;21195;-77
2021/03/27 10:21:52;;;;;;;;;;;;;;;22.73;23.85;102267.87;1765819;81;20163;-78
2021/03/27 10:24:41;;;;;;;;;;;;;;;22.58;23.89;102277.55;1765638;80;20206;-76
2021/03/27 10:27:18;;;;;;;;;;;;;;;22.72;23.41;102271.52;1765525;81;20231;-76
2021/03/27 10:30:08;;;;;;;;;;;;;;;22.69;22.89;102266.50;1765656;81;20162;-80
2021/03/27 10:32:42;;;;;;;;;;;;;;;22.72;22.95;102271.52;1765673;80;21200;-77
2021/03/27 10:35:13;;;;;;;;;;;;;;;23.06;22.78;102268.24;1765469;80;20130;-76
2021/03/27 10:38:01;;;;;;;;;;;;;;;23.22;22.14;102266.31;1765764;80;20286;-82
2021/03/27 10:40:43;;;;;;;;;;;;;;;23.81;22.25;102267.25;1776162;80;20357;-77
2021/03/27 10:43:14;;;;;;;;;;;;;;;23.94;21.18;102269.55;1795794;79;20158;-79
2021/03/27 10:45:56;;;;;;;;;;;;;;;23.79;21.37;102264.41;1796525;79;21248;-77
2021/03/27 10:48:51;;;;;;;;;;;;;;;23.88;21.41;102266.17;1795723;80;20150;-78
2021/03/27 10:51:41;;;;;;;;;;;;;;;24.04;21.51;102263.20;1795784;79;20122;-77
2021/03/27 10:54:29;;;;;;;;;;;;;;;23.87;20.32;102263.20;1795887;79;20589;-81
2021/03/27 10:57:02;;;;;;;;;;;;;;;23.58;21.15;102261.51;1796234;79;20226;-80
2021/03/27 10:59:39;;;;;;;;;;;;;;;23.41;21.28;102262.30;1797350;80;21359;-78
2021/03/27 11:02:29;;;;;;;;;;;;;;;23.33;20.54;102259.98;1796660;79;20547;-78
2021/03/27 11:05:22;;;;;;;;;;;;;;;23.37;20.48;102262.69;1796472;80;20167;-76
2021/03/27 11:08:12;;;;;;;;;;;;;;;23.74;20.48;102257.41;1796653;80;20175;-78
2021/03/27 11:11:03;;;;;;;;;;;;;;;24.11;20.85;102248.85;1796740;79;20201;-80
2021/03/27 11:13:55;;;;;;;;;;;;;;;23.95;20.92;102246.03;1796202;79;20223;-82
2021/03/27 11:16:48;;;;;;;;;;;;;;;24.29;20.67;102244.89;1795941;80;20155;-77
2021/03/27 11:19:37;;;;;;;;;;;;;;;24.58;20.05;102241.50;1796017;80;20234;-76
2021/03/27 11:22:11;;;;;;;;;;;;;;;25.06;20.02;102239.21;1795666;79;20567;-79
2021/03/27 11:25:12;;;;;;;;;;;;;;;25.18;19.18;102239.27;1795927;80;20305;-78
2021/03/27 11:27:46;;;;;;;;;;;;;;;24.95;19.35;102238.17;1796033;80;21361;-77
2021/03/27 11:30:27;;;;;;;;;;;;;;;24.43;19.13;102227.95;1795928;80;20186;-80
2021/03/27 11:32:59;;;;;;;;;;;;;;;23.98;20.00;102231.98;1778444;80;20111;-78
2021/03/27 11:35:30;;;;;;;;;;;;;;;23.62;20.78;102232.89;1796329;79;20306;-78
2021/03/27 11:38:25;;;;;;;;;;;;;;;23.39;20.54;102231.09;1796035;80;20397;-84
2021/03/27 11:41:07;;;;;;;;;;;;;;;23.77;20.50;102230.11;1796046;80;21191;-82
2021/03/27 11:43:47;;;;;;;;;;;;;;;24.07;19.99;102223.61;1775700;80;20156;-78
2021/03/27 11:46:25;;;;;;;;;;;;;;;24.17;20.04;102225.73;1796618;79;20234;-80
2021/03/27 11:48:58;;;;;;;;;;;;;;;23.96;20.16;102226.50;1770764;80;20214;-83
2021/03/27 11:51:34;;;;;;;;;;;;;;;22.83;21.36;102231.16;1795804;80;20615;-77
2021/03/27 11:54:32;;;;;;;;;;;;;;;21.88;22.65;102224.85;1796818;79;22049;-80
2021/03/27 11:57:27;;;;;;;;;;;;;;;21.47;23.08;102225.03;1796421;77;20221;-84
2021/03/27 12:03:15;;;;;;;;;;;;;;;21.23;24.46;102225.81;1732252;83;20246;-79
2021/03/27 12:05:49;;;;;;;;;;;;;;;21.69;23.13;102223.48;1780853;79;20610;-80
2021/03/27 12:08:26;;;;;;;;;;;;;;;21.29;23.62;102224.80;1796406;80;22091;-83
2021/03/27 12:11:02;;;;;;;;;;;;;;;21.12;23.99;102218.84;1776352;80;20281;-79
2021/03/27 12:13:58;;;;;;;;;;;;;;;21.22;23.84;102226.30;1796217;80;20146;-79
2021/03/27 12:16:35;;;;;;;;;;;;;;;21.09;24.46;102218.59;1796061;79;20245;-79
2021/03/27 12:19:28;;;;;;;;;;;;;;;21.07;24.71;102218.34;1796027;79;20198;-79
2021/03/27 12:22:17;;;;;;;;;;;;;;;21.22;24.86;102222.84;1795869;80;20323;-77
2021/03/27 12:25:13;;;;;;;;;;;;;;;21.64;24.03;102214.64;1796600;80;20194;-84
2021/03/27 12:28:04;;;;;;;;;;;;;;;22.14;24.06;102215.94;1796420;79;20225;-80
2021/03/27 12:30:41;;;;;;;;;;;;;;;22.48;23.26;102216.34;1796319;79;20489;-77
2021/03/27 12:33:12;;;;;;;;;;;;;;;22.18;23.26;102219.15;1795912;79;20277;-80
2021/03/27 12:35:53;;;;;;;;;;;;;;;22.28;22.92;102212.87;1796625;79;21092;-81
2021/03/27 12:38:25;;;;;;;;;;;;;;;22.04;23.07;102221.22;1796290;80;20234;-80
2021/03/27 12:41:02;;;;;;;;;;;;;;;21.81;23.36;102213.63;1796470;79;20222;-79
2021/03/27 12:43:33;;;;;;;;;;;;;;;21.76;23.55;102214.54;1796612;80;20222;-79
2021/03/27 12:46:29;;;;;;;;;;;;;;;21.85;24.11;102213.23;1797279;80;20480;-83
2021/03/27 12:49:35;;;;;;;;;;;;;;;22.50;23.69;102208.60;1796561;80;21194;-81
2021/03/27 12:52:25;;;;;;;;;;;;;;;22.88;22.93;102205.59;1796704;80;20266;-84
2021/03/27 12:55:21;;;;;;;;;;;;;;;22.89;21.88;102203.27;1796215;80;20146;-84
2021/03/27 12:57:58;;;;;;;;;;;;;;;23.23;21.19;102214.18;1796090;80;20607;-81
2021/03/27 13:00:47;;;;;;;;;;;;;;;23.09;21.29;102202.23;1796357;80;20237;-77
2021/03/27 13:03:37;;;;;;;;;;;;;;;23.31;21.66;102196.56;1796926;80;21203;-76
2021/03/27 13:06:28;;;;;;;;;;;;;;;23.48;21.35;102202.94;1796138;79;20754;-81
2021/03/27 13:09:15;;;;;;;;;;;;;;;22.48;21.79;102195.17;1792397;80;20244;-83
2021/03/27 13:11:54;;;;;;;;;;;;;;;21.55;22.13;102193.00;1796152;79;20135;-76
2021/03/27 13:14:55;;;;;;;;;;;;;;;20.96;23.65;102193.37;1796160;80;20277;-82
2021/03/27 13:17:26;;;;;;;;;;;;;;;20.39;23.97;102190.70;1796452;79;21661;-82
2021/03/27 13:20:00;;;;;;;;;;;;;;;19.69;24.48;102193.45;1796288;80;20218;-79
2021/03/27 13:22:36;;;;;;;;;;;;;;;19.54;24.72;102188.44;1795978;79;20495;-81
2021/03/27 13:25:21;;;;;;;;;;;;;;;20.13;24.79;102187.21;1796124;80;20244;-84
2021/03/27 13:28:09;;;;;;;;;;;;;;;20.79;24.07;102182.08;1796103;79;20202;-80
2021/03/27 13:30:59;;;;;;;;;;;;;;;20.86;23.24;102187.20;1796495;80;21196;-78
2021/03/27 13:33:38;;;;;;;;;;;;;;;20.58;23.20;102187.39;1796025;79;20130;-79
2021/03/27 13:36:24;;;;;;;;;;;;;;;20.03;23.60;102182.70;1796013;80;20635;-82
2021/03/27 13:39:04;;;;;;;;;;;;;;;19.81;24.19;102177.97;1796335;79;20275;-77
2021/03/27 13:41:41;;;;;;;;;;;;;;;20.25;24.20;102176.49;1796605;79;20221;-77
2021/03/27 13:44:28;;;;;;;;;;;;;;;20.66;24.08;102175.69;1809304;78;21188;-80
2021/03/27 13:47:12;;;;;;;;;;;;;;;20.85;23.82;102176.28;1825999;78;20195;-80
2021/03/27 13:49:51;;;;;;;;;;;;;;;20.82;23.60;102173.91;1826764;78;20137;-80
2021/03/27 13:52:47;;;;;;;;;;;;;;;20.58;23.37;102173.69;1826301;78;20538;-82
2021/03/27 13:55:19;;;;;;;;;;;;;;;20.01;23.92;102174.06;1826677;78;20188;-85
2021/03/27 13:57:59;;;;;;;;;;;;;;;19.47;24.59;102168.81;1826318;78;21184;-78
2021/03/27 14:00:48;;;;;;;;;;;;;;;19.25;25.26;102179.81;1812852;78;20192;-81
2021/03/27 14:03:50;;;;;;;;;;;;;;;18.92;25.14;102172.77;1970880;72;20245;-79
2021/03/27 14:06:26;;;;;;;;;;;;;;;18.86;25.44;102169.27;1936759;74;20209;-79
2021/03/27 14:09:17;;;;;;;;;;;;;;;19.54;24.92;102162.58;1894703;74;21136;-82
2021/03/27 14:12:08;;;;;;;;;;;;;;;19.96;24.13;102159.59;1936767;74;20157;-77
2021/03/27 14:15:05;;;;;;;;;;;;;;;20.46;23.77;102158.06;1929074;74;20148;-82
2021/03/27 14:17:53;;;;;;;;;;;;;;;21.13;23.23;102157.12;1891570;74;20145;-77
2021/03/27 14:20:37;;;;;;;;;;;;;;;21.85;22.42;102156.89;1887517;74;20141;-80
2021/03/27 14:23:30;;;;;;;;;;;;;;;22.43;21.67;102151.94;1936721;74;21184;-79